createdAt,value
2019-02-21T00:01:47.354Z,9.05
2019-02-21T00:04:16.043Z,8.75
2019-02-21T00:06:44.663Z,9.28
2019-02-21T00:09:13.318Z,7.60
2019-02-21T00:11:41.943Z,8.50
2019-02-21T00:14:10.603Z,8.23
2019-02-21T00:16:39.749Z,8.28
2019-02-21T00:19:08.442Z,9.10
2019-02-21T00:21:37.066Z,7.73
2019-02-21T00:24:05.713Z,9.00
2019-02-21T00:26:34.343Z,8.83
2019-02-21T00:29:03.072Z,9.30
2019-02-21T00:31:31.792Z,8.13
2019-02-21T00:34:00.415Z,9.90
2019-02-21T00:36:29.031Z,7.87
2019-02-21T00:38:57.713Z,9.40
2019-02-21T00:41:26.408Z,8.18
2019-02-21T00:43:54.955Z,7.70
2019-02-21T00:46:24.675Z,7.43
2019-02-21T00:48:53.290Z,9.20
2019-02-21T00:51:21.923Z,9.10
2019-02-21T00:53:50.567Z,9.75
2019-02-21T00:56:19.202Z,9.45
2019-02-21T00:58:47.835Z,9.75
2019-02-21T01:01:16.783Z,9.13
2019-02-21T01:03:45.439Z,9.07
2019-02-21T01:06:14.047Z,9.73
2019-02-21T01:08:42.847Z,10.26
2019-02-21T01:11:11.499Z,10.50
2019-02-21T01:13:40.134Z,11.43
2019-02-21T01:16:08.761Z,10.23
2019-02-21T01:18:37.411Z,9.98
2019-02-21T01:21:06.035Z,9.05
2019-02-21T01:23:34.742Z,9.78
2019-02-21T01:26:03.403Z,11.33
2019-02-21T01:28:32.543Z,9.43
2019-02-21T01:31:01.205Z,10.25
2019-02-21T01:33:29.819Z,9.93
2019-02-21T01:35:58.447Z,10.38
2019-02-21T01:38:27.095Z,9.83
2019-02-21T01:40:55.732Z,9.98
2019-02-21T01:43:24.362Z,9.55
2019-02-21T01:45:53.003Z,10.65
2019-02-21T01:48:21.635Z,9.90
2019-02-21T01:50:50.712Z,10.05
2019-02-21T01:53:19.327Z,8.98
2019-02-21T01:55:47.968Z,9.50
2019-02-21T01:58:16.615Z,9.63
2019-02-21T02:00:45.235Z,9.58
2019-02-21T02:03:13.876Z,10.40
2019-02-21T02:05:42.523Z,9.58
2019-02-21T02:08:11.166Z,10.93
2019-02-21T02:10:40.776Z,10.18
2019-02-21T02:13:21.523Z,9.63
2019-02-21T02:15:39.668Z,10.40
2019-02-21T02:18:08.307Z,10.48
2019-02-21T02:20:36.931Z,10.70
2019-02-21T02:23:05.566Z,9.40
2019-02-21T02:25:34.472Z,10.20
2019-02-21T02:28:03.230Z,11.08
2019-02-21T02:30:31.876Z,10.78
2019-02-21T02:33:00.534Z,11.00
2019-02-21T02:35:29.322Z,10.60
2019-02-21T02:37:58.624Z,11.10
2019-02-21T02:40:27.356Z,11.43
2019-02-21T02:42:55.996Z,11.00
2019-02-21T02:45:25.088Z,11.63
2019-02-21T02:47:53.748Z,10.88
2019-02-21T02:50:22.387Z,11.05
2019-02-21T02:52:50.999Z,11.48
2019-02-21T02:55:19.673Z,12.20
2019-02-21T02:57:48.295Z,11.57
2019-02-21T03:00:18.011Z,10.68
2019-02-21T03:02:46.798Z,11.67
2019-02-21T03:05:15.492Z,11.13
2019-02-21T03:07:45.470Z,12.00
2019-02-21T03:10:15.072Z,11.18
2019-02-21T03:12:43.701Z,11.18
2019-02-21T03:15:12.413Z,11.77
2019-02-21T03:17:41.032Z,12.13
2019-02-21T03:20:09.766Z,13.23
2019-02-21T03:22:38.412Z,10.95
2019-02-21T03:25:07.171Z,12.00
2019-02-21T03:27:35.809Z,12.20
2019-02-21T03:30:04.836Z,12.17
2019-02-21T03:32:34.195Z,11.88
2019-02-21T03:35:02.901Z,13.13
2019-02-21T03:37:31.540Z,13.20
2019-02-21T03:40:00.352Z,13.32
2019-02-21T03:42:29.015Z,13.10
2019-02-21T03:44:57.970Z,14.70
2019-02-21T03:47:26.600Z,14.18
2019-02-21T03:49:55.235Z,13.90
2019-02-21T03:52:23.960Z,15.87
2019-02-21T03:54:52.722Z,13.90
2019-02-21T03:57:21.359Z,14.23
2019-02-21T03:59:50.019Z,13.85
2019-02-21T04:02:18.646Z,14.55
2019-02-21T04:04:47.286Z,13.60
2019-02-21T04:07:16.025Z,15.23
2019-02-21T04:09:44.641Z,15.05
2019-02-21T04:12:13.271Z,14.73
2019-02-21T04:14:42.043Z,15.70
2019-02-21T04:17:10.740Z,14.95
2019-02-21T04:19:39.375Z,14.60
2019-02-21T04:22:08.038Z,14.80
2019-02-21T04:24:36.661Z,16.53
2019-02-21T04:27:05.299Z,15.97
2019-02-21T04:29:34.523Z,15.98
2019-02-21T04:32:03.155Z,15.90
2019-02-21T04:34:31.782Z,16.43
2019-02-21T04:37:00.470Z,14.93
2019-02-21T04:39:29.113Z,15.60
2019-02-21T04:41:57.756Z,15.00
2019-02-21T04:44:26.393Z,16.35
2019-02-21T04:46:55.043Z,15.15
2019-02-21T04:49:23.667Z,14.47
2019-02-21T04:51:52.308Z,14.73
2019-02-21T04:54:20.951Z,14.10
2019-02-21T04:56:49.578Z,16.93
2019-02-21T04:59:18.209Z,15.45
2019-02-21T05:01:46.846Z,16.15
2019-02-21T05:04:16.183Z,14.52
2019-02-21T05:06:44.831Z,16.60
2019-02-21T05:09:13.450Z,16.85
2019-02-21T05:11:42.180Z,16.10
2019-02-21T05:14:11.780Z,17.30
2019-02-21T05:16:40.548Z,16.32
2019-02-21T05:19:09.304Z,17.37
2019-02-21T05:21:37.986Z,17.33
2019-02-21T05:24:06.644Z,17.30
2019-02-21T05:26:42.661Z,17.82
2019-02-21T05:29:12.699Z,17.43
2019-02-21T05:31:57.688Z,15.27
2019-02-21T05:34:45.467Z,16.37
2019-02-21T05:37:48.367Z,16.37
2019-02-21T05:40:36.161Z,18.92
2019-02-21T05:43:42.515Z,18.85
2019-02-21T05:46:33.235Z,18.97
2019-02-21T05:49:20.996Z,14.63
2019-02-21T05:51:55.150Z,17.92
2019-02-21T05:54:49.030Z,14.37
2019-02-21T05:57:36.440Z,17.70
2019-02-21T06:00:31.891Z,16.25
2019-02-21T06:03:18.667Z,16.15
2019-02-21T06:06:06.447Z,18.30
2019-02-21T06:08:41.104Z,17.30
2019-02-21T06:11:18.356Z,17.40
2019-02-21T06:14:09.065Z,18.67
2019-02-21T06:16:49.259Z,18.20
2019-02-21T06:19:39.874Z,14.40
2019-02-21T06:22:26.860Z,13.05
2019-02-21T06:25:04.079Z,19.07
2019-02-21T06:27:50.348Z,13.55
2019-02-21T06:30:23.571Z,18.67
2019-02-21T06:32:52.204Z,10.23
2019-02-21T06:35:20.945Z,17.37
2019-02-21T06:37:49.683Z,15.88
2019-02-21T06:40:18.343Z,18.30
2019-02-21T06:42:47.054Z,17.47
2019-02-21T06:45:18.157Z,17.73
2019-02-21T06:47:46.854Z,16.03
2019-02-21T06:50:26.012Z,19.67
2019-02-21T06:52:45.742Z,18.12
2019-02-21T06:55:14.376Z,18.52
2019-02-21T06:57:43.012Z,14.60
2019-02-21T07:00:11.683Z,19.42
2019-02-21T07:02:40.311Z,18.67
2019-02-21T07:05:08.931Z,18.60
2019-02-21T07:07:37.619Z,19.27
2019-02-21T07:10:06.940Z,16.77
2019-02-21T07:12:35.577Z,18.10
2019-02-21T07:15:04.393Z,19.13
2019-02-21T07:17:33.022Z,17.37
2019-02-21T07:20:01.679Z,19.12
2019-02-21T07:22:30.315Z,17.25
2019-02-21T07:25:03.827Z,20.23
2019-02-21T07:27:32.491Z,18.57
2019-02-21T07:30:01.128Z,19.62
2019-02-21T07:32:29.951Z,21.27
2019-02-21T07:34:58.675Z,20.80
2019-02-21T07:37:27.303Z,19.77
2019-02-21T07:39:55.947Z,20.20
2019-02-21T07:42:24.607Z,19.60
2019-02-21T07:44:53.296Z,19.80
2019-02-21T07:47:21.963Z,20.67
2019-02-21T07:49:50.715Z,19.92
2019-02-21T07:52:19.807Z,21.15
2019-02-21T07:54:50.925Z,17.15
2019-02-21T07:57:18.723Z,17.23
2019-02-21T07:59:47.423Z,19.48
2019-02-21T08:02:16.124Z,17.52
2019-02-21T08:04:46.023Z,14.78
2019-02-21T08:07:14.651Z,16.37
2019-02-21T08:09:43.649Z,7.20
2019-02-21T08:12:12.288Z,7.35
2019-02-21T08:14:43.309Z,4.60
2019-02-21T08:17:11.856Z,15.90
2019-02-21T08:19:40.447Z,7.97
2019-02-21T08:22:09.151Z,4.80
2019-02-21T08:24:37.814Z,9.18
2019-02-21T08:27:07.399Z,6.20
2019-02-21T08:29:36.031Z,8.93
2019-02-21T08:32:04.651Z,9.03
2019-02-21T08:34:37.899Z,4.00
2019-02-21T08:37:08.739Z,8.10
2019-02-21T08:39:36.871Z,8.98
2019-02-21T08:42:05.499Z,9.40
2019-02-21T08:44:34.131Z,18.07
2019-02-21T08:47:02.783Z,17.80
2019-02-21T08:49:31.424Z,17.87
2019-02-21T08:52:00.130Z,14.25
2019-02-21T08:54:28.897Z,16.05
2019-02-21T08:56:57.531Z,17.00
2019-02-21T08:59:26.163Z,16.00
2019-02-21T09:01:54.802Z,15.90
2019-02-21T09:04:27.547Z,17.80
2019-02-21T09:06:53.708Z,16.02
2019-02-21T09:09:22.370Z,16.40
2019-02-21T09:11:53.670Z,16.55
2019-02-21T09:14:21.619Z,16.77
2019-02-21T09:16:50.245Z,16.82
2019-02-21T09:19:19.285Z,17.45
2019-02-21T09:21:47.922Z,14.50
2019-02-21T09:24:35.164Z,12.80
2019-02-21T09:26:47.375Z,6.62
2019-02-21T09:29:16.007Z,14.07
2019-02-21T09:31:44.641Z,17.07
2019-02-21T09:34:20.947Z,5.03
2019-02-21T09:36:43.535Z,12.10
2019-02-21T09:39:12.243Z,8.35
2019-02-21T09:41:40.971Z,16.12
2019-02-21T09:44:09.587Z,7.20
2019-02-21T09:46:40.561Z,13.43
2019-02-21T09:49:08.487Z,4.75
2019-02-21T09:51:37.143Z,13.80
2019-02-21T09:54:05.780Z,16.35
2019-02-21T09:56:34.411Z,17.90
2019-02-21T09:59:03.072Z,16.35
2019-02-21T10:01:31.775Z,10.07
2019-02-21T10:04:00.484Z,18.10
2019-02-21T10:06:29.259Z,10.88
2019-02-21T10:08:57.891Z,7.72
2019-02-21T10:11:26.502Z,15.05
2019-02-21T10:13:55.130Z,16.70
2019-02-21T10:16:23.746Z,14.57
2019-02-21T10:18:52.601Z,7.13
2019-02-21T10:21:21.207Z,13.85
2019-02-21T10:23:49.836Z,7.00
2019-02-21T10:26:18.612Z,10.58
2019-02-21T10:28:47.250Z,10.60
2019-02-21T10:31:16.559Z,14.95
2019-02-21T10:33:47.252Z,15.18
2019-02-21T10:36:15.466Z,14.90
2019-02-21T10:38:44.175Z,14.03
2019-02-21T10:41:12.820Z,16.47
2019-02-21T10:43:41.453Z,13.07
2019-02-21T10:46:10.093Z,10.23
2019-02-21T10:48:38.731Z,12.33
2019-02-21T10:51:07.359Z,10.53
2019-02-21T10:53:37.067Z,4.87
2019-02-21T10:56:05.800Z,12.20
2019-02-21T10:58:34.412Z,3.85
2019-02-21T11:01:03.130Z,13.80
2019-02-21T11:03:32.391Z,12.70
2019-02-21T11:06:01.021Z,8.15
2019-02-21T11:08:29.679Z,8.73
2019-02-21T11:10:58.315Z,10.95
2019-02-21T11:13:26.941Z,10.75
2019-02-21T11:15:55.722Z,10.87
2019-02-21T11:18:24.871Z,10.25
2019-02-21T11:20:53.503Z,9.50
2019-02-21T11:23:22.157Z,11.00
2019-02-21T11:25:50.791Z,14.53
2019-02-21T11:28:19.454Z,12.85
2019-02-21T11:30:48.816Z,13.46
2019-02-21T11:33:17.459Z,12.33
2019-02-21T11:35:46.120Z,9.13
2019-02-21T11:38:14.744Z,14.50
2019-02-21T11:40:43.367Z,12.30
2019-02-21T11:43:12.019Z,9.50
2019-02-21T11:45:40.642Z,13.18
2019-02-21T11:48:09.405Z,3.72
2019-02-21T11:50:38.115Z,2.40
2019-02-21T11:53:06.730Z,3.77
2019-02-21T11:55:35.871Z,5.20
2019-02-21T11:58:04.519Z,2.58
2019-02-21T12:00:33.652Z,3.47
2019-02-21T12:03:02.283Z,6.40
2019-02-21T12:05:31.882Z,2.87
2019-02-21T12:08:01.523Z,3.17
2019-02-21T12:10:30.287Z,3.08
2019-02-21T12:12:58.918Z,12.35
2019-02-21T12:15:27.565Z,5.72
2019-02-21T12:17:56.195Z,5.55
2019-02-21T12:20:24.823Z,5.92
2019-02-21T12:22:53.511Z,6.65
2019-02-21T12:25:22.950Z,7.37
2019-02-21T12:27:51.570Z,6.05
2019-02-21T12:30:20.303Z,5.30
2019-02-21T12:32:48.959Z,7.50
2019-02-21T12:35:28.792Z,7.58
2019-02-21T12:37:48.052Z,6.28
2019-02-21T12:40:17.207Z,5.93
2019-02-21T12:42:45.907Z,6.67
2019-02-21T12:45:15.440Z,5.00
2019-02-21T12:47:50.741Z,6.23
2019-02-21T12:50:15.545Z,5.35
2019-02-21T12:52:44.364Z,4.55
2019-02-21T12:55:13.599Z,6.70
2019-02-21T12:57:42.347Z,7.55
2019-02-21T13:00:12.011Z,8.03
2019-02-21T13:02:40.799Z,10.00
2019-02-21T13:05:09.436Z,7.57
2019-02-21T13:07:38.080Z,7.78
2019-02-21T13:10:07.831Z,7.47
2019-02-21T13:12:36.543Z,3.02
2019-02-21T13:15:05.407Z,2.35
2019-02-21T13:17:34.108Z,7.42
2019-02-21T13:20:02.992Z,4.97
2019-02-21T13:22:31.972Z,5.33
2019-02-21T13:25:00.595Z,4.93
2019-02-21T13:27:29.343Z,6.80
2019-02-21T13:29:57.970Z,7.70
2019-02-21T13:32:26.805Z,7.83
2019-02-21T13:34:55.458Z,7.55
2019-02-21T13:37:28.923Z,7.47
2019-02-21T13:39:54.609Z,7.70
2019-02-21T13:42:23.319Z,8.40
2019-02-21T13:44:51.951Z,4.37
2019-02-21T13:47:20.603Z,3.77
2019-02-21T13:49:49.231Z,9.17
2019-02-21T13:52:18.171Z,8.48
2019-02-21T13:54:46.797Z,8.45
2019-02-21T13:57:15.555Z,10.00
2019-02-21T13:59:44.186Z,8.70
2019-02-21T14:02:15.276Z,7.72
2019-02-21T14:04:43.089Z,7.92
2019-02-21T14:07:12.017Z,7.65
2019-02-21T14:09:40.631Z,5.30
2019-02-21T14:12:09.261Z,2.72
2019-02-21T14:14:37.875Z,3.40
2019-02-21T14:17:06.579Z,7.63
2019-02-21T14:19:35.371Z,9.90
2019-02-21T14:22:03.988Z,9.67
2019-02-21T14:24:36.922Z,9.00
2019-02-21T14:27:04.087Z,10.72
2019-02-21T14:29:39.204Z,10.65
2019-02-21T14:32:02.999Z,2.05
2019-02-21T14:34:31.632Z,10.40
2019-02-21T14:37:01.331Z,10.53
2019-02-21T14:39:30.130Z,10.83
2019-02-21T14:41:58.767Z,8.30
2019-02-21T14:44:27.411Z,9.25
2019-02-21T14:46:56.095Z,5.60
2019-02-21T14:49:25.749Z,2.83
2019-02-21T14:51:54.528Z,6.07
2019-02-21T14:54:23.219Z,5.03
2019-02-21T14:56:51.835Z,7.03
2019-02-21T14:59:21.002Z,7.30
2019-02-21T15:01:49.707Z,6.37
2019-02-21T15:04:18.319Z,7.77
2019-02-21T15:06:46.987Z,2.30
2019-02-21T15:09:15.603Z,4.23
2019-02-21T15:11:44.327Z,6.37
2019-02-21T15:14:13.115Z,6.33
2019-02-21T15:16:42.207Z,5.50
2019-02-21T15:19:10.844Z,5.45
2019-02-21T15:21:40.590Z,3.58
2019-02-21T15:24:09.192Z,4.12
2019-02-21T15:26:37.806Z,3.97
2019-02-21T15:29:06.431Z,6.83
2019-02-21T15:31:35.055Z,5.37
2019-02-21T15:34:03.688Z,5.93
2019-02-21T15:36:38.257Z,3.20
2019-02-21T15:39:04.847Z,3.30
2019-02-21T15:41:34.583Z,5.83
2019-02-21T15:44:03.267Z,4.00
2019-02-21T15:46:31.897Z,5.67
2019-02-21T15:49:00.607Z,4.97
2019-02-21T15:51:30.308Z,2.27
2019-02-21T15:53:58.936Z,3.90
2019-02-21T15:56:27.549Z,4.92
2019-02-21T15:58:56.215Z,5.23
2019-02-21T16:01:25.156Z,4.35
2019-02-21T16:03:53.764Z,2.70
2019-02-21T16:06:22.407Z,4.70
2019-02-21T16:08:51.019Z,2.53
2019-02-21T16:11:19.649Z,3.35
2019-02-21T16:13:48.481Z,5.87
2019-02-21T16:16:17.850Z,3.43
2019-02-21T16:18:46.547Z,5.67
2019-02-21T16:21:15.203Z,4.20
2019-02-21T16:23:43.813Z,6.28
2019-02-21T16:26:12.502Z,5.53
2019-02-21T16:28:41.143Z,3.98
2019-02-21T16:31:09.899Z,6.47
2019-02-21T16:33:38.533Z,7.08
2019-02-21T16:36:07.315Z,7.07
2019-02-21T16:38:35.944Z,6.57
2019-02-21T16:41:04.692Z,4.25
2019-02-21T16:43:33.331Z,6.87
2019-02-21T16:46:07.800Z,6.97
2019-02-21T16:48:32.243Z,4.92
2019-02-21T16:51:01.434Z,6.03
2019-02-21T16:53:30.141Z,8.13
2019-02-21T16:55:58.814Z,7.27
2019-02-21T16:58:27.439Z,7.72
2019-02-21T17:00:56.856Z,8.80
2019-02-21T17:03:26.671Z,7.72
2019-02-21T17:05:55.279Z,4.63
2019-02-21T17:08:24.296Z,7.95
2019-02-21T17:10:52.927Z,8.43
2019-02-21T17:13:21.546Z,7.70
2019-02-21T17:15:50.179Z,7.70
2019-02-21T17:18:18.787Z,6.58
2019-02-21T17:20:47.749Z,8.10
2019-02-21T17:23:22.842Z,8.38
2019-02-21T17:25:46.613Z,7.83
2019-02-21T17:28:15.271Z,8.43
2019-02-21T17:30:43.899Z,7.70
2019-02-21T17:33:12.523Z,9.00
2019-02-21T17:35:41.194Z,8.13
2019-02-21T17:38:09.807Z,9.27
2019-02-21T17:40:38.587Z,9.55
2019-02-21T17:43:07.212Z,6.92
2019-02-21T17:45:35.839Z,8.07
2019-02-21T17:48:04.635Z,9.53
2019-02-21T17:50:33.295Z,8.78
2019-02-21T17:53:01.887Z,8.73
2019-02-21T17:55:30.603Z,8.70
2019-02-21T17:57:59.247Z,7.50
2019-02-21T18:00:32.709Z,9.00
2019-02-21T18:03:01.347Z,7.60
2019-02-21T18:05:29.959Z,8.90
2019-02-21T18:07:58.618Z,9.33
2019-02-21T18:10:27.323Z,8.88
2019-02-21T18:12:56.419Z,9.55
2019-02-21T18:15:25.085Z,9.25
2019-02-21T18:17:53.749Z,9.73
2019-02-21T18:20:22.375Z,9.58
2019-02-21T18:22:51.016Z,10.33
2019-02-21T18:25:22.503Z,19.52
2019-02-21T18:27:51.265Z,21.37
2019-02-21T18:30:19.825Z,14.37
2019-02-21T18:32:48.472Z,12.28
2019-02-21T18:35:17.099Z,10.98
2019-02-21T18:37:47.785Z,11.03
2019-02-21T18:40:18.453Z,13.07
2019-02-21T18:42:46.583Z,14.43
2019-02-21T18:45:15.232Z,10.45
2019-02-21T18:47:44.616Z,13.08
2019-02-21T18:50:13.355Z,12.75
2019-02-21T18:52:42.043Z,12.37
2019-02-21T18:55:10.918Z,12.28
2019-02-21T18:57:39.625Z,13.30
2019-02-21T19:00:09.336Z,12.87
2019-02-21T19:02:39.707Z,12.37
2019-02-21T19:05:08.441Z,13.25
2019-02-21T19:07:37.127Z,12.07
2019-02-21T19:10:06.508Z,12.78
2019-02-21T19:12:35.158Z,11.75
2019-02-21T19:15:03.776Z,11.57
2019-02-21T19:17:32.468Z,11.33
2019-02-21T19:20:01.123Z,11.83
2019-02-21T19:22:29.823Z,12.40
2019-02-21T19:24:58.460Z,14.17
2019-02-21T19:27:36.835Z,12.82
2019-02-21T19:29:57.355Z,12.82
2019-02-21T19:32:26.071Z,16.02
2019-02-21T19:34:54.743Z,19.55
2019-02-21T19:37:23.371Z,13.38
2019-02-21T19:39:52.851Z,11.73
2019-02-21T19:42:22.079Z,13.22
2019-02-21T19:44:50.709Z,13.45
2019-02-21T19:47:19.363Z,13.90
2019-02-21T19:49:48.015Z,13.50
2019-02-21T19:52:16.746Z,13.48
2019-02-21T19:54:45.383Z,13.48
2019-02-21T19:57:14.128Z,13.10
2019-02-21T19:59:42.755Z,13.93
2019-02-21T20:02:11.386Z,13.43
2019-02-21T20:04:40.047Z,12.98
2019-02-21T20:07:08.676Z,13.03
2019-02-21T20:09:37.315Z,12.50
2019-02-21T20:12:06.136Z,12.95
2019-02-21T20:14:34.942Z,12.43
2019-02-21T20:17:03.582Z,12.90
2019-02-21T20:19:32.236Z,12.37
2019-02-21T20:22:00.952Z,13.17
2019-02-21T20:24:29.579Z,13.93
2019-02-21T20:27:00.266Z,14.95
2019-02-21T20:29:28.607Z,13.97
2019-02-21T20:31:57.480Z,13.73
2019-02-21T20:34:26.116Z,13.57
2019-02-21T20:36:54.747Z,14.83
2019-02-21T20:39:23.487Z,13.07
2019-02-21T20:41:52.122Z,14.95
2019-02-21T20:44:20.925Z,14.65
2019-02-21T20:46:50.075Z,13.28
2019-02-21T20:49:18.783Z,14.50
2019-02-21T20:51:47.413Z,15.00
2019-02-21T20:54:16.143Z,14.30
2019-02-21T20:56:44.827Z,14.13
2019-02-21T20:59:13.469Z,14.80
2019-02-21T21:01:42.123Z,15.43
2019-02-21T21:04:11.504Z,16.40
2019-02-21T21:06:40.209Z,15.08
2019-02-21T21:09:08.849Z,15.65
2019-02-21T21:11:37.771Z,15.47
2019-02-21T21:14:06.399Z,16.17
2019-02-21T21:16:35.075Z,15.95
2019-02-21T21:19:03.713Z,15.97
2019-02-21T21:21:32.403Z,15.08
2019-02-21T21:24:01.094Z,15.05
2019-02-21T21:26:30.292Z,15.18
2019-02-21T21:28:58.927Z,16.25
2019-02-21T21:31:27.639Z,16.70
2019-02-21T21:33:56.393Z,16.07
2019-02-21T21:36:25.040Z,15.43
2019-02-21T21:38:54.475Z,15.78
2019-02-21T21:41:23.191Z,14.60
2019-02-21T21:43:52.083Z,16.27
2019-02-21T21:46:20.725Z,17.07
2019-02-21T21:48:49.386Z,16.32
2019-02-21T21:51:18.025Z,16.60
2019-02-21T21:53:46.675Z,16.27
2019-02-21T21:56:15.305Z,17.03
2019-02-21T21:58:44.030Z,17.90
2019-02-21T22:01:12.687Z,10.45
2019-02-21T22:03:41.307Z,7.42
2019-02-21T22:06:10.374Z,17.95
2019-02-21T22:08:39.031Z,16.33
2019-02-21T22:11:07.734Z,16.90
2019-02-21T22:13:36.685Z,17.07
2019-02-21T22:16:05.471Z,14.63
2019-02-21T22:18:34.799Z,17.75
2019-02-21T22:21:03.443Z,19.20
2019-02-21T22:23:32.172Z,19.87
2019-02-21T22:26:02.216Z,18.73
2019-02-21T22:28:32.122Z,17.95
2019-02-21T22:31:00.900Z,17.87
2019-02-21T22:33:29.647Z,17.92
2019-02-21T22:35:58.299Z,19.23
2019-02-21T22:38:26.928Z,18.07
2019-02-21T22:40:55.559Z,19.37
2019-02-21T22:43:24.639Z,18.52
2019-02-21T22:45:53.300Z,18.13
2019-02-21T22:48:21.928Z,16.63
2019-02-21T22:50:50.560Z,19.33
2019-02-21T22:53:20.038Z,19.30
2019-02-21T22:55:48.663Z,19.25
2019-02-21T22:58:17.295Z,18.32
2019-02-21T23:01:10.455Z,19.92
2019-02-21T23:03:41.251Z,17.37
2019-02-21T23:06:19.204Z,18.77
2019-02-21T23:08:52.147Z,19.27
2019-02-21T23:11:20.975Z,19.96
2019-02-21T23:13:49.679Z,19.37
2019-02-21T23:16:18.319Z,19.40
2019-02-21T23:18:46.971Z,18.25
2019-02-21T23:21:16.351Z,18.45
2019-02-21T23:23:44.987Z,20.73
2019-02-21T23:26:13.634Z,18.45
2019-02-21T23:28:42.271Z,19.15
2019-02-21T23:31:11.055Z,18.60
2019-02-21T23:33:44.547Z,20.57
2019-02-21T23:36:13.182Z,19.07
2019-02-21T23:38:42.107Z,18.80
2019-02-21T23:41:10.771Z,17.62
2019-02-21T23:43:39.503Z,18.43
2019-02-21T23:46:08.220Z,18.37
2019-02-21T23:48:36.982Z,18.52
2019-02-21T23:51:05.719Z,19.80
2019-02-21T23:53:34.474Z,19.25
2019-02-21T23:56:03.122Z,18.43
2019-02-21T23:58:31.751Z,19.40
